createdAt,value
2023-02-14T00:08:00.910Z,13.20
2023-02-14T00:18:08.328Z,13.10
2023-02-14T00:28:15.497Z,14.90
2023-02-14T00:38:22.699Z,15.40
2023-02-14T00:48:29.702Z,14.80
2023-02-14T00:58:36.897Z,12.10
2023-02-14T01:08:44.025Z,11.30
2023-02-14T01:18:52.153Z,10.00
2023-02-14T01:29:00.035Z,14.30
2023-02-14T01:39:10.228Z,17.60
2023-02-14T01:49:19.948Z,15.20
2023-02-14T02:09:31.654Z,46.20
2023-02-14T02:19:55.186Z,29.00
2023-02-14T02:30:36.004Z,22.40
2023-02-14T02:40:44.010Z,16.10
2023-02-14T02:51:13.185Z,13.50
2023-02-14T03:01:22.144Z,11.50
2023-02-14T03:11:29.949Z,9.40
2023-02-14T03:21:35.392Z,10.10
2023-02-14T03:31:46.283Z,13.50
2023-02-14T03:41:54.599Z,11.10
2023-02-14T03:52:04.023Z,10.20
2023-02-14T04:02:16.860Z,9.40
2023-02-14T04:12:37.166Z,13.80
2023-02-14T04:22:46.474Z,13.40
2023-02-14T04:32:53.499Z,13.60
2023-02-14T04:43:00.720Z,11.70
2023-02-14T04:53:07.996Z,12.80
2023-02-14T05:03:15.464Z,12.50
2023-02-14T05:13:23.235Z,12.20
2023-02-14T05:23:30.661Z,18.00
2023-02-14T05:33:38.371Z,24.60
2023-02-14T05:43:45.830Z,14.50
2023-02-14T05:53:53.268Z,14.70
2023-02-14T06:04:00.527Z,15.00
2023-02-14T06:14:08.429Z,14.50
2023-02-14T06:24:15.625Z,20.10
2023-02-14T06:34:22.828Z,20.60
2023-02-14T06:44:30.450Z,16.00
2023-02-14T06:54:38.127Z,14.10
2023-02-14T07:04:45.218Z,13.80
2023-02-14T07:14:52.379Z,14.30
2023-02-14T07:24:59.726Z,19.20
2023-02-14T07:35:05.840Z,43.80
2023-02-14T07:45:21.135Z,17.90
2023-02-14T07:55:29.609Z,18.20
2023-02-14T08:05:37.059Z,16.50
2023-02-14T08:16:02.402Z,16.50
2023-02-14T08:26:08.975Z,18.70
2023-02-14T08:36:18.351Z,15.30
2023-02-14T08:46:25.598Z,13.40
2023-02-14T08:56:33.496Z,12.40
2023-02-14T09:06:40.615Z,16.60
2023-02-14T09:16:47.795Z,15.10
2023-02-14T09:26:55.960Z,15.00
2023-02-14T09:37:04.881Z,12.10
2023-02-14T09:47:13.868Z,11.00
2023-02-14T09:57:22.499Z,15.20
2023-02-14T10:07:30.035Z,12.70
2023-02-14T10:17:36.916Z,10.50
2023-02-14T10:27:46.892Z,14.40
2023-02-14T10:37:54.595Z,18.50
2023-02-14T10:48:00.112Z,13.80
2023-02-14T10:58:13.288Z,12.70
2023-02-14T11:08:20.164Z,15.40
2023-02-14T11:18:30.140Z,16.50
2023-02-14T11:28:41.788Z,14.60
2023-02-14T11:38:59.732Z,15.50
2023-02-14T11:49:17.248Z,18.60
2023-02-14T11:59:29.338Z,17.70
2023-02-14T12:09:40.895Z,12.80
2023-02-14T12:19:50.764Z,11.30
2023-02-14T12:30:04.346Z,16.20
2023-02-14T12:40:12.222Z,17.90
2023-02-14T12:50:44.835Z,12.60
2023-02-14T13:00:49.898Z,12.80
2023-02-14T13:10:56.142Z,19.30
2023-02-14T13:21:06.432Z,16.00
2023-02-14T13:31:15.321Z,12.00
2023-02-14T13:41:22.896Z,11.70
2023-02-14T13:51:47.533Z,12.90
2023-02-14T14:01:54.920Z,11.60
2023-02-14T14:12:02.224Z,11.20
2023-02-14T14:22:08.811Z,16.70
2023-02-14T14:32:28.100Z,14.00
2023-02-14T14:42:40.221Z,16.40
2023-02-14T14:52:51.160Z,15.20
2023-02-14T15:03:02.564Z,13.30
2023-02-14T15:13:32.739Z,16.60
2023-02-14T15:23:39.960Z,24.20
2023-02-14T15:33:47.647Z,19.90
2023-02-14T15:43:57.537Z,20.60
2023-02-14T15:54:07.881Z,15.80
2023-02-14T16:04:15.388Z,12.80
2023-02-14T16:14:31.007Z,18.30
2023-02-14T16:24:37.481Z,25.40
2023-02-14T16:34:47.603Z,17.60
2023-02-14T16:44:55.579Z,21.50
2023-02-14T16:55:04.042Z,24.40
2023-02-14T17:05:08.659Z,19.00
2023-02-14T17:15:13.902Z,28.70
2023-02-14T17:25:21.112Z,23.80
2023-02-14T17:35:28.692Z,25.80
2023-02-14T17:45:35.768Z,42.20
2023-02-14T17:55:42.881Z,38.70
2023-02-14T18:05:50.214Z,48.40
2023-02-14T18:15:57.355Z,42.20
2023-02-14T18:26:07.552Z,55.50
2023-02-14T18:36:17.316Z,59.90
2023-02-14T18:46:26.731Z,39.60
2023-02-14T19:06:42.395Z,40.90
2023-02-14T19:16:50.835Z,37.40
2023-02-14T19:26:59.135Z,29.80
2023-02-14T19:37:06.946Z,52.70
2023-02-14T19:47:25.620Z,36.00
2023-02-14T19:57:36.931Z,36.30
2023-02-14T20:07:43.754Z,28.60
2023-02-14T20:17:50.939Z,42.70
2023-02-14T20:38:05.800Z,35.80
2023-02-14T20:48:11.898Z,37.50
2023-02-14T20:58:19.609Z,28.80
2023-02-14T21:08:25.781Z,32.20
2023-02-14T21:28:39.495Z,27.20
2023-02-14T21:38:47.054Z,30.50
2023-02-14T21:49:12.720Z,28.70
2023-02-14T21:59:19.764Z,26.00
2023-02-14T22:09:26.969Z,22.70
2023-02-14T22:19:35.554Z,28.00
2023-02-14T22:29:42.818Z,36.50
2023-02-14T22:39:50.503Z,41.80
2023-02-14T22:49:59.379Z,43.00
2023-02-14T23:00:11.869Z,40.00
2023-02-14T23:10:18.207Z,35.40
2023-02-14T23:20:43.076Z,26.70
2023-02-14T23:30:50.224Z,32.00
2023-02-14T23:41:15.241Z,27.70
2023-02-14T23:51:22.537Z,31.90
